createdAt,value
2023-05-21T00:00:15.850Z,14.45
2023-05-21T00:02:43.910Z,14.90
2023-05-21T00:05:14.914Z,13.90
2023-05-21T00:07:42.814Z,14.18
2023-05-21T00:10:11.524Z,14.25
2023-05-21T00:12:41.818Z,14.05
2023-05-21T00:15:10.550Z,14.38
2023-05-21T00:17:38.540Z,14.07
2023-05-21T00:20:09.395Z,13.60
2023-05-21T00:22:37.270Z,13.68
2023-05-21T00:25:05.383Z,13.88
2023-05-21T00:27:33.245Z,14.15
2023-05-21T00:30:02.563Z,13.85
2023-05-21T00:32:30.493Z,13.13
2023-05-21T00:34:58.379Z,13.68
2023-05-21T00:37:26.206Z,13.88
2023-05-21T00:39:54.629Z,13.60
2023-05-21T00:42:27.471Z,13.18
2023-05-21T00:44:55.264Z,13.83
2023-05-21T00:47:26.963Z,13.63
2023-05-21T00:49:55.002Z,13.13
2023-05-21T00:52:23.208Z,12.70
2023-05-21T00:54:52.114Z,13.45
2023-05-21T00:57:21.745Z,12.63
2023-05-21T00:59:52.407Z,13.45
2023-05-21T01:02:20.768Z,13.40
2023-05-21T01:04:50.074Z,13.93
2023-05-21T01:07:18.712Z,13.52
2023-05-21T01:09:46.973Z,13.05
2023-05-21T01:12:15.731Z,13.23
2023-05-21T01:14:44.028Z,14.05
2023-05-21T01:17:13.293Z,12.80
2023-05-21T01:19:42.857Z,13.75
2023-05-21T01:22:14.294Z,13.15
2023-05-21T01:24:47.632Z,13.50
2023-05-21T01:27:15.803Z,13.25
2023-05-21T01:29:43.852Z,13.20
2023-05-21T01:32:19.328Z,13.23
2023-05-21T01:35:05.980Z,13.40
2023-05-21T01:37:38.933Z,12.80
2023-05-21T01:40:15.051Z,13.35
2023-05-21T01:42:45.535Z,13.35
2023-05-21T01:45:16.992Z,12.73
2023-05-21T01:47:48.784Z,12.77
2023-05-21T01:50:16.943Z,13.00
2023-05-21T01:52:51.265Z,13.70
2023-05-21T01:55:24.591Z,13.10
2023-05-21T01:57:53.981Z,13.32
2023-05-21T02:00:22.734Z,13.13
2023-05-21T02:02:50.977Z,12.38
2023-05-21T02:05:19.100Z,12.88
2023-05-21T02:07:49.835Z,12.13
2023-05-21T02:10:17.767Z,13.45
2023-05-21T02:12:47.194Z,12.80
2023-05-21T02:15:18.019Z,13.18
2023-05-21T02:17:46.384Z,12.35
2023-05-21T02:20:14.783Z,12.75
2023-05-21T02:22:44.473Z,13.05
2023-05-21T02:25:14.002Z,12.75
2023-05-21T02:27:42.998Z,12.68
2023-05-21T02:30:14.589Z,13.43
2023-05-21T02:32:43.250Z,12.23
2023-05-21T02:35:12.604Z,13.23
2023-05-21T02:37:41.450Z,12.90
2023-05-21T02:40:10.954Z,12.60
2023-05-21T02:42:43.391Z,12.13
2023-05-21T02:45:13.958Z,13.20
2023-05-21T02:47:42.155Z,12.65
2023-05-21T02:50:10.923Z,12.90
2023-05-21T02:52:38.886Z,12.05
2023-05-21T02:55:07.955Z,12.88
2023-05-21T02:57:35.930Z,12.30
2023-05-21T03:00:06.014Z,11.90
2023-05-21T03:02:35.527Z,12.93
2023-05-21T03:05:03.675Z,12.43
2023-05-21T03:07:31.805Z,13.55
2023-05-21T03:09:59.589Z,12.15
2023-05-21T03:12:27.494Z,12.50
2023-05-21T03:14:56.358Z,12.15
2023-05-21T03:17:24.295Z,12.10
2023-05-21T03:19:54.693Z,12.15
2023-05-21T03:22:22.687Z,12.52
2023-05-21T03:24:50.524Z,12.88
2023-05-21T03:27:18.332Z,13.10
2023-05-21T03:29:46.177Z,13.02
2023-05-21T03:32:15.070Z,12.63
2023-05-21T03:34:43.092Z,12.73
2023-05-21T03:37:12.276Z,13.30
2023-05-21T03:39:40.090Z,12.10
2023-05-21T03:42:07.957Z,12.38
2023-05-21T03:44:35.678Z,12.35
2023-05-21T03:47:03.696Z,12.00
2023-05-21T03:49:31.500Z,12.18
2023-05-21T03:51:59.355Z,12.52
2023-05-21T03:54:28.708Z,11.88
2023-05-21T03:56:56.621Z,13.00
2023-05-21T03:59:24.398Z,12.60
2023-05-21T04:01:52.293Z,12.27
2023-05-21T04:04:20.199Z,12.05
2023-05-21T04:06:48.307Z,12.15
2023-05-21T04:09:16.574Z,12.80
2023-05-21T04:11:45.801Z,11.90
2023-05-21T04:14:13.606Z,12.25
2023-05-21T04:16:44.171Z,13.00
2023-05-21T04:19:12.136Z,12.38
2023-05-21T04:21:40.420Z,11.98
2023-05-21T04:24:08.282Z,12.55
2023-05-21T04:26:36.114Z,12.90
2023-05-21T04:29:05.280Z,12.85
2023-05-21T04:31:33.432Z,12.30
2023-05-21T04:34:01.597Z,12.55
2023-05-21T04:36:30.225Z,12.65
2023-05-21T04:38:58.156Z,12.43
2023-05-21T04:41:25.974Z,12.52
2023-05-21T04:43:55.381Z,12.27
2023-05-21T04:46:25.724Z,12.10
2023-05-21T04:48:55.062Z,12.30
2023-05-21T04:51:24.763Z,12.20
2023-05-21T04:53:53.891Z,12.75
2023-05-21T04:56:22.921Z,13.05
2023-05-21T04:58:50.917Z,12.57
2023-05-21T05:01:19.065Z,12.88
2023-05-21T05:03:48.489Z,12.73
2023-05-21T05:06:16.705Z,12.23
2023-05-21T05:08:44.706Z,13.10
2023-05-21T05:11:12.538Z,13.02
2023-05-21T05:13:51.796Z,12.65
2023-05-21T05:16:25.040Z,12.65
2023-05-21T05:18:54.762Z,13.23
2023-05-21T05:21:23.732Z,12.18
2023-05-21T05:23:51.607Z,12.25
2023-05-21T05:26:19.662Z,12.70
2023-05-21T05:28:47.497Z,12.27
2023-05-21T05:31:15.380Z,12.35
2023-05-21T05:33:43.184Z,13.02
2023-05-21T05:36:12.389Z,12.18
2023-05-21T05:38:40.269Z,12.07
2023-05-21T05:41:08.131Z,12.23
2023-05-21T05:43:35.957Z,12.15
2023-05-21T05:46:03.854Z,12.02
2023-05-21T05:48:31.639Z,12.35
2023-05-21T05:50:59.962Z,13.20
2023-05-21T05:55:57.052Z,12.02
2023-05-21T05:58:24.826Z,13.10
2023-05-21T06:00:53.350Z,12.02
2023-05-21T06:03:21.232Z,12.10
2023-05-21T06:05:50.098Z,11.63
2023-05-21T06:08:17.987Z,12.43
2023-05-21T06:10:47.213Z,12.35
2023-05-21T06:13:15.000Z,11.90
2023-05-21T06:15:43.203Z,12.27
2023-05-21T06:18:11.555Z,11.88
2023-05-21T06:20:39.588Z,12.00
2023-05-21T06:23:08.841Z,12.30
2023-05-21T06:25:36.967Z,12.15
2023-05-21T06:28:06.410Z,11.88
2023-05-21T06:30:34.222Z,11.75
2023-05-21T06:33:02.206Z,13.10
2023-05-21T06:35:30.016Z,12.32
2023-05-21T06:37:57.830Z,11.93
2023-05-21T06:40:27.922Z,12.10
2023-05-21T06:42:56.391Z,11.63
2023-05-21T06:45:25.525Z,11.60
2023-05-21T06:47:53.428Z,11.68
2023-05-21T06:50:21.532Z,11.10
2023-05-21T06:52:49.638Z,12.02
2023-05-21T06:55:17.474Z,11.77
2023-05-21T06:57:45.294Z,11.50
2023-05-21T07:00:15.009Z,11.10
2023-05-21T07:02:44.383Z,11.13
2023-05-21T07:05:12.239Z,11.98
2023-05-21T07:07:40.705Z,11.70
2023-05-21T07:10:10.033Z,11.20
2023-05-21T07:12:38.169Z,11.90
2023-05-21T07:15:06.947Z,11.73
2023-05-21T07:17:35.063Z,11.40
2023-05-21T07:20:06.634Z,11.30
2023-05-21T07:22:34.866Z,11.18
2023-05-21T07:25:03.020Z,11.30
2023-05-21T07:27:31.085Z,11.05
2023-05-21T07:29:59.029Z,11.32
2023-05-21T07:32:29.131Z,11.15
2023-05-21T07:34:57.749Z,11.55
2023-05-21T07:37:27.901Z,11.45
2023-05-21T07:39:55.763Z,11.60
2023-05-21T07:42:23.577Z,11.95
2023-05-21T07:44:51.394Z,11.48
2023-05-21T07:47:19.352Z,11.40
2023-05-21T07:49:47.156Z,11.30
2023-05-21T07:52:14.979Z,11.32
2023-05-21T07:54:44.258Z,10.70
2023-05-21T07:57:15.019Z,11.15
2023-05-21T07:59:42.887Z,11.75
2023-05-21T08:02:10.961Z,11.13
2023-05-21T08:04:41.093Z,10.98
2023-05-21T08:07:09.901Z,11.02
2023-05-21T08:09:37.844Z,11.13
2023-05-21T08:12:08.223Z,10.93
2023-05-21T08:14:36.111Z,11.00
2023-05-21T08:17:04.077Z,11.38
2023-05-21T08:19:32.820Z,10.80
2023-05-21T08:22:00.723Z,11.25
2023-05-21T08:24:28.528Z,10.80
2023-05-21T08:26:56.353Z,10.85
2023-05-21T08:29:25.786Z,11.13
2023-05-21T08:31:53.581Z,11.18
2023-05-21T08:34:21.502Z,10.80
2023-05-21T08:36:50.005Z,11.38
2023-05-21T08:39:18.209Z,10.45
2023-05-21T08:41:49.877Z,10.68
2023-05-21T08:44:22.369Z,10.18
2023-05-21T08:49:26.398Z,9.95
2023-05-21T08:51:56.283Z,10.13
2023-05-21T08:54:24.124Z,9.88
2023-05-21T08:56:53.704Z,10.07
2023-05-21T08:59:23.251Z,9.88
2023-05-21T09:01:53.887Z,9.98
2023-05-21T09:04:22.180Z,9.35
2023-05-21T09:06:50.984Z,8.88
2023-05-21T09:09:26.385Z,9.32
2023-05-21T09:11:54.287Z,9.77
2023-05-21T09:14:24.307Z,9.57
2023-05-21T09:16:53.634Z,9.15
2023-05-21T09:19:22.044Z,9.30
2023-05-21T09:21:52.383Z,9.48
2023-05-21T09:24:22.689Z,8.98
2023-05-21T09:26:51.325Z,9.50
2023-05-21T09:29:19.531Z,9.52
2023-05-21T09:31:47.678Z,9.80
2023-05-21T09:34:17.050Z,10.02
2023-05-21T09:36:44.944Z,9.73
2023-05-21T09:39:16.540Z,9.80
2023-05-21T09:41:44.470Z,9.93
2023-05-21T09:44:12.425Z,10.38
2023-05-21T09:46:41.184Z,10.20
2023-05-21T09:49:23.067Z,10.32
2023-05-21T09:51:55.719Z,10.23
2023-05-21T09:54:24.268Z,10.07
2023-05-21T09:56:53.424Z,9.93
2023-05-21T09:59:22.102Z,10.43
2023-05-21T10:01:53.024Z,9.82
2023-05-21T10:04:22.118Z,10.63
2023-05-21T10:06:53.526Z,9.75
2023-05-21T10:09:22.414Z,9.25
2023-05-21T10:11:53.919Z,10.15
2023-05-21T10:14:24.366Z,10.25
2023-05-21T10:16:55.294Z,10.00
2023-05-21T10:19:25.754Z,10.20
2023-05-21T10:21:57.255Z,9.23
2023-05-21T10:24:26.052Z,9.20
2023-05-21T10:26:54.103Z,9.73
2023-05-21T10:29:24.126Z,9.82
2023-05-21T10:31:54.083Z,9.82
2023-05-21T10:34:24.385Z,10.02
2023-05-21T10:36:53.712Z,10.32
2023-05-21T10:39:25.350Z,10.00
2023-05-21T10:42:03.378Z,9.93
2023-05-21T10:44:41.833Z,10.40
2023-05-21T10:47:46.856Z,9.70
2023-05-21T10:50:32.643Z,10.52
2023-05-21T10:53:10.813Z,10.05
2023-05-21T10:55:52.720Z,10.48
2023-05-21T10:58:38.284Z,10.32
2023-05-21T11:01:07.533Z,9.73
2023-05-21T11:03:37.703Z,9.77
2023-05-21T11:06:06.523Z,10.18
2023-05-21T11:08:36.159Z,10.10
2023-05-21T11:11:06.082Z,9.90
2023-05-21T11:13:48.746Z,9.52
2023-05-21T11:16:17.091Z,10.00
2023-05-21T11:19:03.690Z,9.82
2023-05-21T11:21:34.768Z,9.60
2023-05-21T11:24:10.985Z,10.13
2023-05-21T11:27:06.776Z,8.60
2023-05-21T11:29:40.648Z,9.48
2023-05-21T11:32:13.215Z,8.85
2023-05-21T11:34:42.722Z,8.85
2023-05-21T11:37:31.491Z,8.93
2023-05-21T11:40:18.401Z,9.07
2023-05-21T11:42:51.978Z,8.93
2023-05-21T11:45:20.929Z,8.38
2023-05-21T11:47:49.387Z,8.90
2023-05-21T11:50:17.969Z,8.93
2023-05-21T11:52:46.244Z,8.70
2023-05-21T11:55:15.755Z,9.15
2023-05-21T11:57:45.384Z,8.57
2023-05-21T12:00:18.256Z,8.70
2023-05-21T12:02:49.707Z,8.63
2023-05-21T12:05:20.234Z,8.05
2023-05-21T12:07:50.211Z,8.70
2023-05-21T12:10:21.499Z,9.20
2023-05-21T12:12:55.806Z,8.85
2023-05-21T12:15:27.962Z,8.55
2023-05-21T12:17:57.165Z,9.27
2023-05-21T12:20:28.227Z,8.93
2023-05-21T12:22:57.779Z,8.87
2023-05-21T12:25:25.879Z,9.00
2023-05-21T12:27:57.915Z,8.90
2023-05-21T12:30:27.534Z,8.70
2023-05-21T12:32:59.184Z,8.63
2023-05-21T12:35:27.247Z,8.88
2023-05-21T12:37:55.876Z,8.38
2023-05-21T12:40:35.261Z,9.15
2023-05-21T12:43:03.355Z,8.63
2023-05-21T12:45:34.159Z,9.27
2023-05-21T12:48:02.640Z,8.60
2023-05-21T12:50:30.579Z,8.30
2023-05-21T12:52:59.648Z,8.60
2023-05-21T12:55:27.463Z,8.48
2023-05-21T12:58:03.858Z,9.35
2023-05-21T13:00:33.555Z,8.57
2023-05-21T13:03:02.027Z,8.40
2023-05-21T13:05:29.981Z,8.82
2023-05-21T13:07:57.783Z,8.63
2023-05-21T13:10:25.634Z,8.40
2023-05-21T13:12:53.392Z,9.00
2023-05-21T13:15:21.527Z,8.95
2023-05-21T13:17:52.038Z,8.85
2023-05-21T13:20:23.731Z,8.50
2023-05-21T13:22:52.822Z,8.40
2023-05-21T13:25:21.981Z,9.20
2023-05-21T13:27:51.206Z,8.25
2023-05-21T13:30:19.751Z,8.88
2023-05-21T13:32:47.897Z,8.13
2023-05-21T13:35:17.687Z,8.57
2023-05-21T13:37:46.030Z,8.95
2023-05-21T13:40:16.256Z,8.88
2023-05-21T13:42:45.307Z,8.43
2023-05-21T13:45:14.698Z,8.38
2023-05-21T13:47:43.374Z,8.38
2023-05-21T13:50:11.882Z,8.70
2023-05-21T13:52:41.119Z,7.78
2023-05-21T13:55:09.991Z,7.95
2023-05-21T13:57:40.984Z,8.73
2023-05-21T14:00:12.684Z,8.52
2023-05-21T14:02:42.479Z,7.93
2023-05-21T14:05:11.315Z,7.93
2023-05-21T14:07:39.877Z,8.20
2023-05-21T14:10:10.321Z,8.52
2023-05-21T14:12:38.592Z,8.63
2023-05-21T14:15:07.753Z,8.52
2023-05-21T14:17:35.728Z,8.00
2023-05-21T14:20:03.788Z,8.73
2023-05-21T14:22:31.548Z,8.60
2023-05-21T14:24:59.351Z,7.43
2023-05-21T14:27:28.527Z,7.95
2023-05-21T14:29:56.295Z,7.57
2023-05-21T14:32:24.224Z,7.47
2023-05-21T14:34:52.634Z,7.60
2023-05-21T14:37:20.763Z,7.40
2023-05-21T14:39:48.507Z,7.72
2023-05-21T14:42:16.330Z,7.75
2023-05-21T14:44:45.401Z,7.57
2023-05-21T14:47:13.170Z,7.95
2023-05-21T14:49:41.016Z,7.88
2023-05-21T14:52:08.752Z,7.68
2023-05-21T14:54:36.794Z,7.38
2023-05-21T14:57:05.026Z,7.78
2023-05-21T14:59:32.805Z,7.72
2023-05-21T15:02:02.236Z,7.60
2023-05-21T15:04:30.133Z,7.45
2023-05-21T15:06:58.575Z,7.57
2023-05-21T15:09:26.337Z,7.97
2023-05-21T15:11:54.126Z,7.88
2023-05-21T15:14:21.975Z,6.93
2023-05-21T15:16:49.855Z,7.78
2023-05-21T15:19:19.121Z,7.70
2023-05-21T15:21:47.007Z,7.22
2023-05-21T15:24:14.781Z,7.00
2023-05-21T15:26:42.632Z,7.10
2023-05-21T15:29:10.375Z,6.93
2023-05-21T15:31:39.426Z,7.07
2023-05-21T15:34:07.177Z,7.20
2023-05-21T15:36:36.736Z,7.35
2023-05-21T15:39:06.086Z,7.15
2023-05-21T15:41:36.306Z,7.22
2023-05-21T15:44:04.186Z,6.47
2023-05-21T15:46:32.066Z,6.78
2023-05-21T15:49:00.001Z,9.13
2023-05-21T15:51:27.717Z,7.63
2023-05-21T15:53:57.111Z,7.50
2023-05-21T15:56:24.838Z,7.40
2023-05-21T15:58:52.641Z,8.77
2023-05-21T16:01:20.529Z,8.77
2023-05-21T16:03:48.414Z,9.93
2023-05-21T16:06:16.234Z,7.85
2023-05-21T16:08:44.374Z,7.40
2023-05-21T16:11:13.599Z,9.25
2023-05-21T16:13:42.617Z,7.65
2023-05-21T16:16:10.599Z,6.97
2023-05-21T16:18:38.546Z,7.30
2023-05-21T16:21:06.386Z,6.97
2023-05-21T16:23:34.333Z,7.05
2023-05-21T16:26:02.097Z,6.75
2023-05-21T16:28:31.236Z,7.18
2023-05-21T16:30:59.024Z,7.18
2023-05-21T16:33:26.907Z,6.75
2023-05-21T16:35:54.992Z,6.97
2023-05-21T16:38:23.174Z,7.05
2023-05-21T16:40:50.951Z,6.90
2023-05-21T16:43:18.693Z,7.50
2023-05-21T16:45:48.934Z,7.05
2023-05-21T16:48:17.477Z,7.40
2023-05-21T16:50:47.089Z,7.45
2023-05-21T16:53:15.155Z,7.57
2023-05-21T16:55:43.387Z,6.70
2023-05-21T16:58:13.542Z,6.97
2023-05-21T17:00:41.645Z,6.55
2023-05-21T17:03:11.884Z,6.93
2023-05-21T17:05:39.769Z,7.60
2023-05-21T17:08:08.641Z,7.25
2023-05-21T17:10:36.425Z,7.43
2023-05-21T17:13:13.956Z,6.70
2023-05-21T17:15:49.055Z,7.07
2023-05-21T17:18:18.285Z,6.72
2023-05-21T17:20:46.130Z,6.78
2023-05-21T17:23:14.024Z,7.65
2023-05-21T17:25:42.033Z,7.40
2023-05-21T17:28:10.005Z,7.57
2023-05-21T17:30:37.875Z,7.60
2023-05-21T17:33:06.520Z,7.75
2023-05-21T17:35:35.966Z,7.57
2023-05-21T17:38:03.935Z,7.35
2023-05-21T17:40:31.779Z,6.97
2023-05-21T17:42:59.666Z,7.15
2023-05-21T17:45:27.520Z,7.30
2023-05-21T17:47:59.676Z,7.28
2023-05-21T17:50:28.314Z,6.93
2023-05-21T17:52:57.955Z,7.00
2023-05-21T17:55:25.922Z,6.75
2023-05-21T17:57:53.892Z,7.00
2023-05-21T18:00:22.261Z,7.13
2023-05-21T18:02:50.093Z,7.15
2023-05-21T18:05:18.571Z,6.90
2023-05-21T18:07:46.389Z,7.25
2023-05-21T18:10:16.098Z,7.60
2023-05-21T18:12:46.241Z,6.80
2023-05-21T18:15:14.686Z,7.28
2023-05-21T18:17:42.537Z,7.60
2023-05-21T18:20:11.296Z,6.97
2023-05-21T18:22:39.024Z,6.97
2023-05-21T18:25:07.942Z,7.32
2023-05-21T18:27:37.085Z,7.10
2023-05-21T18:30:06.460Z,7.30
2023-05-21T18:32:34.977Z,8.65
2023-05-21T18:35:03.434Z,7.30
2023-05-21T18:37:31.200Z,7.18
2023-05-21T18:39:58.946Z,7.38
2023-05-21T18:42:28.143Z,6.93
2023-05-21T18:44:57.370Z,7.38
2023-05-21T18:47:25.137Z,7.97
2023-05-21T18:49:52.948Z,7.38
2023-05-21T18:52:20.780Z,7.38
2023-05-21T18:54:48.646Z,7.15
2023-05-21T18:57:16.488Z,7.72
2023-05-21T18:59:47.143Z,7.68
2023-05-21T19:02:16.378Z,7.65
2023-05-21T19:04:44.150Z,7.85
2023-05-21T19:07:11.970Z,7.55
2023-05-21T19:09:39.734Z,7.68
2023-05-21T19:12:08.340Z,7.78
2023-05-21T19:14:36.203Z,8.30
2023-05-21T19:17:04.062Z,7.47
2023-05-21T19:19:33.316Z,7.82
2023-05-21T19:22:01.396Z,8.10
2023-05-21T19:24:29.184Z,7.05
2023-05-21T19:26:57.039Z,8.05
2023-05-21T19:29:26.652Z,7.32
2023-05-21T19:31:58.444Z,7.75
2023-05-21T19:34:26.761Z,7.40
2023-05-21T19:36:56.165Z,8.00
2023-05-21T19:39:23.922Z,8.38
2023-05-21T19:41:52.798Z,7.78
2023-05-21T19:44:21.060Z,8.15
2023-05-21T19:46:50.013Z,7.90
2023-05-21T19:49:20.019Z,8.25
2023-05-21T19:51:49.522Z,7.55
2023-05-21T19:54:19.058Z,7.95
2023-05-21T19:56:46.848Z,8.02
2023-05-21T19:59:14.643Z,8.90
2023-05-21T20:01:44.161Z,8.85
2023-05-21T20:04:12.822Z,8.45
2023-05-21T20:06:40.933Z,8.38
2023-05-21T20:09:11.292Z,7.82
2023-05-21T20:11:42.146Z,8.40
2023-05-21T20:14:10.218Z,8.20
2023-05-21T20:16:38.013Z,8.68
2023-05-21T20:19:06.216Z,8.43
2023-05-21T20:21:34.177Z,9.02
2023-05-21T20:24:03.441Z,8.65
2023-05-21T20:26:35.024Z,9.18
2023-05-21T20:29:06.391Z,9.02
2023-05-21T20:31:34.305Z,8.63
2023-05-21T20:34:02.158Z,8.77
2023-05-21T20:36:33.755Z,9.13
2023-05-21T20:39:02.497Z,8.57
2023-05-21T20:41:35.731Z,8.65
2023-05-21T20:44:06.209Z,8.35
2023-05-21T20:46:38.312Z,8.45
2023-05-21T20:49:06.700Z,8.77
2023-05-21T20:51:34.836Z,8.80
2023-05-21T20:54:02.934Z,9.90
2023-05-21T20:56:41.477Z,8.45
2023-05-21T20:59:12.646Z,8.70
2023-05-21T21:01:41.006Z,8.88
2023-05-21T21:04:09.562Z,8.48
2023-05-21T21:06:38.377Z,8.85
2023-05-21T21:09:06.472Z,8.68
2023-05-21T21:11:34.414Z,9.18
2023-05-21T21:14:02.716Z,9.02
2023-05-21T21:16:31.996Z,9.35
2023-05-21T21:18:59.775Z,9.85
2023-05-21T21:21:28.410Z,9.60
2023-05-21T21:23:56.298Z,9.13
2023-05-21T21:26:24.319Z,9.70
2023-05-21T21:28:52.075Z,10.07
2023-05-21T21:31:20.002Z,9.02
2023-05-21T21:33:49.268Z,9.73
2023-05-21T21:36:17.157Z,9.48
2023-05-21T21:38:45.308Z,9.15
2023-05-21T21:41:13.544Z,9.07
2023-05-21T21:43:41.311Z,9.48
2023-05-21T21:46:09.113Z,9.38
2023-05-21T21:48:36.916Z,9.20
2023-05-21T21:51:06.399Z,9.52
2023-05-21T21:53:34.146Z,10.10
2023-05-21T21:56:02.161Z,9.20
2023-05-21T21:58:29.887Z,8.98
2023-05-21T22:00:57.778Z,9.10
2023-05-21T22:03:25.550Z,9.35
2023-05-21T22:05:55.180Z,9.52
2023-05-21T22:08:25.349Z,9.27
2023-05-21T22:10:53.590Z,9.68
2023-05-21T22:13:21.463Z,9.10
2023-05-21T22:15:50.003Z,9.32
2023-05-21T22:18:25.344Z,9.48
2023-05-21T22:21:04.109Z,9.32
2023-05-21T22:23:33.284Z,9.38
2023-05-21T22:26:01.257Z,9.82
2023-05-21T22:28:29.025Z,10.05
2023-05-21T22:30:56.897Z,9.57
2023-05-21T22:33:24.765Z,9.73
2023-05-21T22:35:52.639Z,9.85
2023-05-21T22:38:20.830Z,9.85
2023-05-21T22:40:50.182Z,9.57
2023-05-21T22:43:18.165Z,9.45
2023-05-21T22:45:46.381Z,9.63
2023-05-21T22:48:14.286Z,9.90
2023-05-21T22:50:42.193Z,9.40
2023-05-21T22:53:10.110Z,9.38
2023-05-21T22:55:37.912Z,10.25
2023-05-21T22:58:07.012Z,9.27
2023-05-21T23:00:35.088Z,9.18
2023-05-21T23:03:02.972Z,9.95
2023-05-21T23:05:30.792Z,10.25
2023-05-21T23:07:58.623Z,9.60
2023-05-21T23:10:26.387Z,9.68
2023-05-21T23:12:54.220Z,10.00
2023-05-21T23:15:24.343Z,10.10
2023-05-21T23:17:53.482Z,9.98
2023-05-21T23:20:22.810Z,9.38
2023-05-21T23:22:50.686Z,9.85
2023-05-21T23:25:18.896Z,9.98
2023-05-21T23:27:46.997Z,10.18
2023-05-21T23:30:15.490Z,9.48
2023-05-21T23:32:44.629Z,9.57
2023-05-21T23:35:14.405Z,9.90
2023-05-21T23:37:42.190Z,9.70
2023-05-21T23:40:10.777Z,9.77
2023-05-21T23:42:38.638Z,9.90
2023-05-21T23:45:07.332Z,9.68
2023-05-21T23:47:35.086Z,10.18
2023-05-21T23:50:04.323Z,10.23
2023-05-21T23:52:32.258Z,10.23
2023-05-21T23:55:00.012Z,10.43
2023-05-21T23:57:27.806Z,10.23
2023-05-21T23:59:55.664Z,10.75
